createdAt,value
2018-06-20T00:01:07.513Z,52.39
2018-06-20T00:03:38.087Z,52.16
2018-06-20T00:06:08.193Z,51.71
2018-06-20T00:08:42.970Z,51.56
2018-06-20T00:11:13.320Z,51.90
2018-06-20T00:13:44.566Z,51.95
2018-06-20T00:16:15.492Z,52.61
2018-06-20T00:18:47.797Z,52.63
2018-06-20T00:21:19.198Z,53.20
2018-06-20T00:23:50.229Z,52.79
2018-06-20T00:26:22.762Z,52.88
2018-06-20T00:28:53.692Z,52.48
2018-06-20T00:31:25.665Z,52.62
2018-06-20T00:33:57.147Z,52.89
2018-06-20T00:36:28.736Z,52.67
2018-06-20T00:38:59.529Z,53.13
2018-06-20T00:41:30.013Z,53.23
2018-06-20T00:44:00.190Z,53.12
2018-06-20T00:46:31.827Z,52.65
2018-06-20T00:49:03.991Z,51.54
2018-06-20T00:51:36.038Z,50.92
2018-06-20T00:54:07.242Z,51.01
2018-06-20T00:56:38.624Z,50.64
2018-06-20T00:59:08.952Z,50.80
2018-06-20T01:01:41.413Z,50.33
2018-06-20T01:04:14.613Z,49.78
2018-06-20T01:06:46.178Z,50.39
2018-06-20T01:09:17.737Z,49.29
2018-06-20T01:11:50.749Z,49.77
2018-06-20T01:14:24.562Z,49.70
2018-06-20T01:16:59.047Z,49.18
2018-06-20T01:19:32.711Z,48.92
2018-06-20T01:22:05.425Z,48.90
2018-06-20T01:24:37.026Z,49.33
2018-06-20T01:27:07.691Z,48.85
2018-06-20T01:29:38.390Z,48.86
2018-06-20T01:32:08.903Z,48.90
2018-06-20T01:34:39.567Z,48.74
2018-06-20T01:37:11.180Z,49.00
2018-06-20T01:39:43.203Z,48.71
2018-06-20T01:42:13.806Z,49.27
2018-06-20T01:44:44.929Z,48.44
2018-06-20T01:47:15.543Z,48.89
2018-06-20T01:49:45.808Z,48.10
2018-06-20T01:52:17.250Z,48.85
2018-06-20T01:54:47.352Z,49.16
2018-06-20T01:57:17.696Z,48.53
2018-06-20T01:59:47.931Z,48.78
2018-06-20T02:02:18.647Z,48.95
2018-06-20T02:04:49.578Z,48.44
2018-06-20T02:07:20.353Z,48.14
2018-06-20T02:09:51.043Z,48.15
2018-06-20T02:12:21.755Z,48.49
2018-06-20T02:14:52.044Z,48.75
2018-06-20T02:17:22.579Z,48.47
2018-06-20T02:19:52.696Z,48.27
2018-06-20T02:22:23.240Z,48.64
2018-06-20T02:24:53.989Z,49.24
2018-06-20T02:27:24.333Z,49.05
2018-06-20T02:29:54.452Z,49.48
2018-06-20T02:32:24.724Z,50.44
2018-06-20T02:34:54.905Z,50.10
2018-06-20T02:37:25.437Z,50.44
2018-06-20T02:39:55.910Z,51.12
2018-06-20T02:42:26.407Z,50.30
2018-06-20T02:44:57.588Z,50.58
2018-06-20T02:47:33.311Z,50.99
2018-06-20T02:50:04.424Z,50.70
2018-06-20T02:52:35.439Z,51.17
2018-06-20T02:55:05.954Z,51.16
2018-06-20T02:57:37.992Z,51.29
2018-06-20T03:00:08.199Z,51.02
2018-06-20T03:02:39.677Z,50.91
2018-06-20T03:05:10.553Z,50.93
2018-06-20T03:07:41.628Z,51.04
2018-06-20T03:10:11.931Z,51.05
2018-06-20T03:12:44.584Z,50.69
2018-06-20T03:15:16.896Z,50.60
2018-06-20T03:17:47.721Z,50.24
2018-06-20T03:20:18.659Z,50.43
2018-06-20T03:22:48.942Z,50.52
2018-06-20T03:25:19.321Z,51.08
2018-06-20T03:27:49.877Z,51.04
2018-06-20T03:30:20.447Z,50.80
2018-06-20T03:32:51.399Z,50.45
2018-06-20T03:35:22.313Z,50.92
2018-06-20T03:37:52.913Z,51.09
2018-06-20T03:40:24.706Z,50.67
2018-06-20T03:42:55.712Z,50.76
2018-06-20T03:45:27.122Z,50.71
2018-06-20T03:47:58.355Z,51.17
2018-06-20T03:50:29.890Z,50.78
2018-06-20T03:53:01.328Z,50.79
2018-06-20T03:55:31.599Z,51.40
2018-06-20T03:58:01.917Z,51.26
2018-06-20T04:00:32.224Z,51.55
2018-06-20T04:03:02.959Z,50.97
2018-06-20T04:05:33.809Z,51.07
2018-06-20T04:08:04.510Z,50.89
2018-06-20T04:10:34.930Z,51.09
2018-06-20T04:13:05.321Z,50.93
2018-06-20T04:15:35.776Z,51.04
2018-06-20T04:18:06.368Z,51.14
2018-06-20T04:20:37.368Z,50.97
2018-06-20T04:23:08.082Z,51.67
2018-06-20T04:25:39.231Z,51.08
2018-06-20T04:28:09.672Z,51.04
2018-06-20T04:30:40.409Z,51.40
2018-06-20T04:33:11.064Z,50.83
2018-06-20T04:35:41.487Z,51.09
2018-06-20T04:38:12.285Z,51.04
2018-06-20T04:40:42.823Z,51.41
2018-06-20T04:43:13.051Z,51.20
2018-06-20T04:45:43.768Z,51.19
2018-06-20T04:48:14.775Z,50.86
2018-06-20T04:50:45.158Z,50.94
2018-06-20T04:53:15.242Z,51.48
2018-06-20T04:55:45.788Z,50.96
2018-06-20T04:58:16.576Z,51.32
2018-06-20T05:00:47.190Z,51.81
2018-06-20T05:03:17.742Z,51.84
2018-06-20T05:05:47.921Z,52.28
2018-06-20T05:08:18.720Z,51.87
2018-06-20T05:10:49.367Z,52.06
2018-06-20T05:13:19.705Z,52.08
2018-06-20T05:15:50.527Z,53.26
2018-06-20T05:18:20.646Z,52.56
2018-06-20T05:20:51.289Z,52.56
2018-06-20T05:23:21.607Z,52.96
2018-06-20T05:25:52.067Z,53.28
2018-06-20T05:28:22.319Z,53.43
2018-06-20T05:30:54.121Z,52.97
2018-06-20T05:33:29.473Z,52.58
2018-06-20T05:36:01.745Z,52.90
2018-06-20T05:38:32.660Z,53.04
2018-06-20T05:41:04.481Z,52.66
2018-06-20T05:43:34.942Z,52.69
2018-06-20T05:46:05.980Z,52.71
2018-06-20T05:48:36.509Z,53.19
2018-06-20T05:51:06.783Z,52.83
2018-06-20T05:53:37.187Z,53.11
2018-06-20T05:56:08.065Z,52.90
2018-06-20T05:58:38.978Z,52.90
2018-06-20T06:01:09.280Z,53.00
2018-06-20T06:03:40.075Z,52.57
2018-06-20T06:06:15.814Z,53.01
2018-06-20T06:08:47.056Z,52.78
